Time;durP1;ratioP1;P1;durP2;ratioP2;P2;SDS_P1;SDS_P2;PMS_P1;PMS_P2;Temp;Humidity;BMP_temperature;BMP_pressure;BME280_temperature;BME280_humidity;BME280_pressure;Samples;Min_cycle;Max_cycle;Signal;HPM_P1;HPM_P2
2023/08/18 00:01:29;;;;;;;5.38;2.15;;;17.30;99.90;;;;;;5046476;28;20041;-33
2023/08/18 00:03:58;;;;;;;4.68;2.22;;;17.30;99.90;;;;;;5080447;28;20048;-33
2023/08/18 00:06:24;;;;;;;2.47;1.60;;;17.30;99.90;;;;;;5063281;28;20877;-33
2023/08/18 00:08:49;;;;;;;3.00;1.77;;;17.30;99.90;;;;;;5062554;28;20080;-33
2023/08/18 00:11:15;;;;;;;4.38;2.13;;;17.30;99.90;;;;;;5049798;28;20068;-33
2023/08/18 00:13:41;;;;;;;3.15;1.90;;;17.20;99.90;;;;;;5059463;28;20040;-33
2023/08/18 00:16:06;;;;;;;3.97;2.40;;;17.20;99.90;;;;;;5054806;28;20152;-33
2023/08/18 00:18:32;;;;;;;6.07;2.42;;;17.20;99.90;;;;;;5058670;28;20060;-33
2023/08/18 00:20:58;;;;;;;4.50;2.03;;;17.20;99.90;;;;;;5053891;28;20131;-34
2023/08/18 00:23:23;;;;;;;4.20;2.22;;;17.20;99.90;;;;;;5066292;28;20050;-33
2023/08/18 00:25:49;;;;;;;3.58;2.03;;;17.20;99.90;;;;;;5062235;28;20052;-33
2023/08/18 00:28:15;;;;;;;3.33;1.80;;;17.20;99.90;;;;;;5046008;28;20053;-33
2023/08/18 00:30:41;;;;;;;5.28;2.05;;;17.20;99.90;;;;;;5061100;28;20044;-33
2023/08/18 00:33:07;;;;;;;5.32;2.25;;;17.20;99.90;;;;;;5071021;28;20059;-33
2023/08/18 00:35:33;;;;;;;3.70;1.90;;;17.30;99.90;;;;;;5066890;28;20049;-33
2023/08/18 00:37:59;;;;;;;3.72;1.95;;;17.20;99.90;;;;;;5061659;28;20570;-33
2023/08/18 00:40:24;;;;;;;4.18;2.15;;;17.20;99.90;;;;;;5059694;28;20135;-33
2023/08/18 00:42:50;;;;;;;3.85;1.90;;;17.20;99.90;;;;;;5060396;28;20045;-33
2023/08/18 00:45:16;;;;;;;4.32;2.20;;;17.20;99.90;;;;;;5065417;28;20064;-33
2023/08/18 00:47:43;;;;;;;4.75;2.08;;;17.10;99.90;;;;;;5063814;28;20059;-33
2023/08/18 00:50:11;;;;;;;4.55;2.20;;;17.20;99.90;;;;;;5065477;28;20060;-33
2023/08/18 00:52:42;;;;;;;4.82;2.05;;;17.10;99.90;;;;;;5056965;28;20072;-33
2023/08/18 00:55:10;;;;;;;5.63;2.03;;;17.10;99.90;;;;;;5052427;28;20565;-33
2023/08/18 00:57:36;;;;;;;5.18;2.33;;;17.10;99.90;;;;;;5060788;28;20079;-33
2023/08/18 01:00:02;;;;;;;8.02;2.40;;;17.10;99.90;;;;;;5065753;28;20046;-33
2023/08/18 01:02:28;;;;;;;7.40;3.00;;;17.10;99.90;;;;;;5062448;28;20049;-33
2023/08/18 01:05:00;;;;;;;4.03;2.08;;;17.10;99.90;;;;;;5065555;28;20052;-35
2023/08/18 01:07:26;;;;;;;5.40;2.15;;;17.00;99.90;;;;;;5062541;28;22395;-35
2023/08/18 01:09:53;;;;;;;6.43;2.17;;;17.00;99.90;;;;;;5065049;28;20087;-35
2023/08/18 01:12:57;;;;;;;6.75;2.63;;;17.00;99.90;;;;;;5063917;28;20390;-35
2023/08/18 01:15:34;;;;;;;9.30;2.58;;;17.00;99.90;;;;;;5048338;28;20067;-35
2023/08/18 01:18:03;;;;;;;7.18;2.35;;;17.00;99.90;;;;;;5065084;28;20489;-35
2023/08/18 01:20:30;;;;;;;4.10;2.13;;;17.00;99.90;;;;;;5064472;28;20421;-35
2023/08/18 01:23:00;;;;;;;6.22;2.50;;;17.00;99.90;;;;;;5065716;28;20071;-34
2023/08/18 01:25:26;;;;;;;4.88;2.08;;;17.00;99.90;;;;;;5045975;28;20053;-35
2023/08/18 01:27:54;;;;;;;4.63;2.13;;;17.00;99.90;;;;;;5064194;28;20106;-34
2023/08/18 01:30:20;;;;;;;5.13;1.88;;;16.90;99.90;;;;;;5067640;28;20059;-34
2023/08/18 01:32:51;;;;;;;5.85;2.38;;;16.90;99.90;;;;;;5069230;28;20139;-34
2023/08/18 01:35:19;;;;;;;4.95;2.10;;;16.90;99.90;;;;;;5064787;28;20052;-34
2023/08/18 01:37:47;;;;;;;5.20;2.38;;;16.90;99.90;;;;;;5064449;28;20075;-34
2023/08/18 01:40:16;;;;;;;5.88;2.40;;;16.90;99.90;;;;;;5058852;28;20057;-34
2023/08/18 01:42:41;;;;;;;3.90;2.03;;;16.90;99.90;;;;;;5066054;28;20053;-34
2023/08/18 01:45:11;;;;;;;4.07;1.65;;;16.80;99.90;;;;;;5066917;28;20063;-34
2023/08/18 01:47:37;;;;;;;5.75;1.80;;;16.90;99.90;;;;;;5059544;28;20052;-34
2023/08/18 01:50:03;;;;;;;5.65;2.42;;;16.90;99.90;;;;;;5059020;28;20060;-34
2023/08/18 01:52:29;;;;;;;2.60;1.60;;;16.90;99.90;;;;;;5067290;28;20129;-34
2023/08/18 01:54:54;;;;;;;6.38;1.90;;;16.90;99.90;;;;;;5065524;28;20048;-34
2023/08/18 01:57:20;;;;;;;3.50;1.80;;;16.90;99.90;;;;;;5056290;28;20097;-34
2023/08/18 01:59:46;;;;;;;4.60;1.65;;;16.90;99.90;;;;;;5067754;28;20053;-34
2023/08/18 02:02:11;;;;;;;5.28;1.58;;;16.90;99.90;;;;;;5066144;28;20044;-34
2023/08/18 02:04:37;;;;;;;3.20;1.27;;;16.90;99.90;;;;;;5068298;28;20532;-34
2023/08/18 02:07:02;;;;;;;5.90;1.83;;;16.90;99.90;;;;;;5062498;28;20180;-34
2023/08/18 02:09:28;;;;;;;4.18;1.70;;;16.90;99.90;;;;;;5066127;28;20060;-34
2023/08/18 02:11:54;;;;;;;4.93;1.55;;;16.90;99.90;;;;;;5060529;28;20053;-34
2023/08/18 02:14:19;;;;;;;4.93;1.63;;;16.90;99.90;;;;;;5068440;28;20131;-34
2023/08/18 02:16:45;;;;;;;4.57;1.77;;;16.90;99.90;;;;;;5063147;28;20052;-34
2023/08/18 02:19:11;;;;;;;5.72;1.48;;;16.90;99.90;;;;;;5067109;28;20045;-34
2023/08/18 02:21:37;;;;;;;5.45;1.85;;;16.90;99.90;;;;;;5065302;28;20421;-34
2023/08/18 02:24:04;;;;;;;4.63;1.50;;;16.90;99.90;;;;;;5065174;28;20062;-34
2023/08/18 02:26:30;;;;;;;5.15;1.80;;;16.90;99.90;;;;;;5056630;28;20072;-34
2023/08/18 02:28:55;;;;;;;5.15;1.50;;;16.90;99.90;;;;;;5053079;28;20502;-34
2023/08/18 02:31:21;;;;;;;5.22;1.23;;;16.80;99.90;;;;;;5068042;28;20450;-34
2023/08/18 02:33:47;;;;;;;4.47;1.50;;;16.80;99.90;;;;;;5065320;28;20047;-34
2023/08/18 02:36:13;;;;;;;4.70;1.85;;;16.80;99.90;;;;;;5061241;28;20411;-34
2023/08/18 02:38:38;;;;;;;4.85;1.73;;;16.80;99.90;;;;;;5044733;28;20518;-34
2023/08/18 02:41:04;;;;;;;5.63;1.63;;;16.80;99.90;;;;;;5060594;28;20057;-34
2023/08/18 02:43:30;;;;;;;5.75;1.85;;;16.80;99.90;;;;;;5040278;28;20128;-34
2023/08/18 02:45:57;;;;;;;7.65;1.60;;;16.80;99.90;;;;;;5067021;28;20040;-34
2023/08/18 02:48:25;;;;;;;3.20;1.60;;;16.80;99.90;;;;;;5065760;28;20056;-33
2023/08/18 02:51:01;;;;;;;4.53;1.60;;;16.80;99.90;;;;;;5065011;28;20068;-33
2023/08/18 02:53:27;;;;;;;4.38;1.58;;;16.80;99.90;;;;;;5046198;28;20148;-33
2023/08/18 02:55:54;;;;;;;4.13;1.38;;;16.80;99.90;;;;;;5067425;28;20132;-34
2023/08/18 02:58:20;;;;;;;3.78;1.70;;;16.90;99.90;;;;;;5065047;28;20052;-33
2023/08/18 03:00:45;;;;;;;4.43;1.60;;;16.80;99.90;;;;;;5066470;28;20418;-33
2023/08/18 03:03:11;;;;;;;5.47;2.25;;;16.90;99.90;;;;;;5066119;28;20126;-33
2023/08/18 03:05:37;;;;;;;6.05;1.67;;;16.90;99.90;;;;;;5065564;28;20045;-33
2023/08/18 03:08:03;;;;;;;6.15;2.10;;;16.80;99.90;;;;;;5066970;28;20044;-33
2023/08/18 03:10:29;;;;;;;3.85;1.77;;;16.80;99.90;;;;;;5044433;28;20053;-34
2023/08/18 03:12:54;;;;;;;3.63;1.52;;;16.80;99.90;;;;;;5066601;28;20425;-33
2023/08/18 03:15:20;;;;;;;2.75;1.50;;;16.80;99.90;;;;;;5064864;28;20055;-33
2023/08/18 03:17:46;;;;;;;2.92;1.23;;;16.80;99.90;;;;;;5054563;28;20044;-33
2023/08/18 03:20:12;;;;;;;3.30;1.30;;;16.80;99.90;;;;;;5062545;28;20040;-33
2023/08/18 03:22:38;;;;;;;7.00;1.73;;;16.80;99.90;;;;;;5046550;28;20052;-33
2023/08/18 03:25:04;;;;;;;3.95;1.80;;;16.80;99.90;;;;;;5061075;28;20110;-33
2023/08/18 03:27:30;;;;;;;3.78;1.60;;;16.90;99.90;;;;;;5051125;28;20057;-33
2023/08/18 03:29:55;;;;;;;3.00;1.30;;;16.80;99.90;;;;;;5067317;28;20052;-33
2023/08/18 03:32:24;;;;;;;4.57;1.60;;;16.80;99.90;;;;;;5068199;28;20074;-33
2023/08/18 03:34:53;;;;;;;3.15;1.23;;;16.90;99.90;;;;;;5067373;28;20704;-33
2023/08/18 03:37:18;;;;;;;4.22;1.52;;;16.80;99.90;;;;;;5063004;28;20624;-33
2023/08/18 03:39:44;;;;;;;4.80;1.40;;;16.80;99.90;;;;;;5062394;28;20048;-33
2023/08/18 03:42:10;;;;;;;2.90;1.50;;;16.80;99.90;;;;;;5055239;28;20410;-33
2023/08/18 03:44:36;;;;;;;4.30;1.58;;;16.80;99.90;;;;;;5065967;28;20052;-33
2023/08/18 03:47:01;;;;;;;3.90;1.77;;;16.80;99.90;;;;;;5064436;28;20135;-33
2023/08/18 03:49:27;;;;;;;5.38;1.58;;;16.80;99.90;;;;;;5062498;28;20048;-34
2023/08/18 03:51:53;;;;;;;3.58;1.40;;;16.80;99.90;;;;;;5059180;28;20144;-34
2023/08/18 03:54:18;;;;;;;5.03;1.55;;;16.80;99.90;;;;;;5065389;28;20159;-34
2023/08/18 03:56:44;;;;;;;2.70;1.35;;;16.80;99.90;;;;;;5065307;28;20395;-34
2023/08/18 03:59:13;;;;;;;4.18;1.70;;;16.80;99.90;;;;;;5065209;28;20048;-34
2023/08/18 04:01:38;;;;;;;3.90;1.48;;;16.80;99.90;;;;;;5062206;28;20052;-34
2023/08/18 04:04:04;;;;;;;5.25;1.60;;;16.80;99.90;;;;;;5066649;28;20593;-33
2023/08/18 04:06:30;;;;;;;4.43;1.65;;;16.80;99.90;;;;;;5064523;28;20110;-33
2023/08/18 04:09:17;;;;;;;4.38;1.95;;;16.80;99.90;;;;;;5062746;28;20123;-33
2023/08/18 04:11:43;;;;;;;3.40;1.50;;;16.80;99.90;;;;;;5058675;28;20053;-33
2023/08/18 04:14:09;;;;;;;4.90;1.60;;;16.70;99.90;;;;;;5066588;28;20132;-33
2023/08/18 04:16:35;;;;;;;3.67;1.52;;;16.70;99.90;;;;;;5063080;28;20040;-33
2023/08/18 04:19:03;;;;;;;4.22;1.70;;;16.80;99.90;;;;;;5065387;28;20055;-33
2023/08/18 04:21:29;;;;;;;3.92;1.95;;;16.80;99.90;;;;;;5066370;28;20076;-33
2023/08/18 04:23:55;;;;;;;4.22;1.80;;;16.70;99.90;;;;;;5066157;28;20048;-33
2023/08/18 04:26:21;;;;;;;2.88;1.40;;;16.70;99.90;;;;;;5056873;28;20786;-33
2023/08/18 04:28:46;;;;;;;3.55;1.80;;;16.70;99.90;;;;;;5064259;28;20049;-33
2023/08/18 04:31:12;;;;;;;4.20;1.83;;;16.70;99.90;;;;;;5067910;28;20131;-33
2023/08/18 04:33:38;;;;;;;7.72;2.25;;;16.70;99.90;;;;;;5068470;28;20486;-33
2023/08/18 04:36:04;;;;;;;4.03;1.98;;;16.70;99.90;;;;;;5064936;28;20098;-33
2023/08/18 04:38:31;;;;;;;4.53;1.98;;;16.70;99.90;;;;;;5054110;28;20091;-33
2023/08/18 04:41:01;;;;;;;2.95;1.45;;;16.70;99.90;;;;;;5060169;28;20049;-33
2023/08/18 04:43:28;;;;;;;4.38;2.17;;;16.60;99.90;;;;;;5063417;28;20135;-33
2023/08/18 04:45:55;;;;;;;6.07;2.42;;;16.70;99.90;;;;;;5066207;28;20144;-33
2023/08/18 04:48:22;;;;;;;5.07;2.28;;;16.70;99.90;;;;;;5068013;28;20490;-33
2023/08/18 04:50:48;;;;;;;3.67;2.30;;;16.70;99.90;;;;;;5067023;28;20064;-33
2023/08/18 04:53:14;;;;;;;5.18;2.20;;;16.60;99.90;;;;;;5067114;28;20494;-33
2023/08/18 04:55:42;;;;;;;6.95;2.38;;;16.70;99.90;;;;;;5063319;28;20056;-33
2023/08/18 04:58:13;;;;;;;6.25;2.58;;;16.70;99.90;;;;;;5065967;28;20052;-33
2023/08/18 05:00:42;;;;;;;5.05;2.13;;;16.70;99.90;;;;;;5063254;28;20109;-33
2023/08/18 05:03:08;;;;;;;5.15;2.60;;;16.70;99.90;;;;;;5060936;28;20050;-33
2023/08/18 05:05:38;;;;;;;8.10;3.10;;;16.70;99.90;;;;;;5061585;28;20072;-33
2023/08/18 05:08:04;;;;;;;4.00;2.25;;;16.80;99.90;;;;;;5066696;28;20078;-33
2023/08/18 05:10:30;;;;;;;4.65;2.22;;;16.70;99.90;;;;;;5062391;28;20269;-33
2023/08/18 05:12:56;;;;;;;4.93;2.35;;;16.80;99.90;;;;;;5064291;28;20052;-34
2023/08/18 05:15:22;;;;;;;5.43;2.17;;;16.80;99.90;;;;;;5063768;28;20055;-33
2023/08/18 05:17:51;;;;;;;6.78;3.05;;;16.80;99.90;;;;;;5065345;28;20068;-33
2023/08/18 05:20:16;;;;;;;8.43;2.83;;;16.80;99.90;;;;;;5063884;28;20090;-33
2023/08/18 05:22:42;;;;;;;5.03;2.85;;;16.80;99.90;;;;;;5065024;28;20057;-33
2023/08/18 05:25:08;;;;;;;5.47;2.47;;;16.80;99.90;;;;;;5065109;28;20110;-33
2023/08/18 05:27:37;;;;;;;8.32;2.53;;;16.80;99.90;;;;;;5059194;28;20086;-33
2023/08/18 05:30:04;;;;;;;4.60;2.40;;;16.90;99.90;;;;;;5055554;28;20041;-33
2023/08/18 05:32:30;;;;;;;8.20;2.90;;;16.90;99.90;;;;;;5065404;28;20524;-33
2023/08/18 05:34:56;;;;;;;7.65;2.65;;;16.90;99.90;;;;;;5064385;28;20060;-34
2023/08/18 05:37:23;;;;;;;5.95;2.60;;;16.90;99.90;;;;;;5060129;28;20056;-33
2023/08/18 05:39:49;;;;;;;5.47;2.30;;;16.90;99.90;;;;;;5064386;28;20128;-33
2023/08/18 05:42:15;;;;;;;10.50;2.95;;;16.90;99.90;;;;;;5065837;28;20151;-33
2023/08/18 05:44:44;;;;;;;4.97;2.53;;;17.00;99.90;;;;;;5044003;28;20112;-33
2023/08/18 05:47:09;;;;;;;6.05;3.03;;;17.00;99.90;;;;;;5065484;28;20076;-34
2023/08/18 05:49:35;;;;;;;6.35;3.00;;;17.00;99.90;;;;;;5065466;28;20075;-33
2023/08/18 05:52:01;;;;;;;6.07;2.47;;;17.00;99.90;;;;;;5065970;28;20490;-34
2023/08/18 05:54:27;;;;;;;8.30;2.72;;;17.00;99.90;;;;;;5064830;28;20910;-34
2023/08/18 05:56:52;;;;;;;8.18;3.22;;;17.00;99.90;;;;;;5060510;28;20055;-34
2023/08/18 05:59:18;;;;;;;5.88;2.78;;;17.00;99.90;;;;;;5063971;28;20399;-34
2023/08/18 06:01:44;;;;;;;8.75;2.80;;;17.00;99.90;;;;;;5061525;28;20101;-34
2023/08/18 06:04:10;;;;;;;5.90;2.60;;;17.10;99.90;;;;;;5066267;28;20153;-34
2023/08/18 06:06:36;;;;;;;5.40;2.75;;;17.10;99.90;;;;;;5061391;28;20076;-34
2023/08/18 06:09:02;;;;;;;4.20;2.47;;;17.20;99.90;;;;;;5068430;28;20098;-34
2023/08/18 06:11:28;;;;;;;4.82;2.50;;;17.20;99.90;;;;;;5064781;28;20048;-34
2023/08/18 06:13:53;;;;;;;7.72;2.65;;;17.20;99.90;;;;;;5065179;28;20498;-34
2023/08/18 06:16:19;;;;;;;5.35;2.72;;;17.20;99.90;;;;;;5067602;28;20052;-34
2023/08/18 06:18:45;;;;;;;5.70;2.65;;;17.30;99.90;;;;;;5052907;28;20422;-34
2023/08/18 06:21:10;;;;;;;6.80;2.42;;;17.30;99.90;;;;;;5063027;28;20052;-34
2023/08/18 06:23:37;;;;;;;4.13;1.92;;;17.30;99.90;;;;;;5069454;28;20050;-34
2023/08/18 06:26:02;;;;;;;7.70;2.35;;;17.30;99.90;;;;;;5065849;28;20413;-34
2023/08/18 06:28:29;;;;;;;4.55;2.28;;;17.40;99.90;;;;;;5062453;28;20044;-34
2023/08/18 06:31:03;;;;;;;3.83;2.25;;;17.40;99.90;;;;;;5055722;28;20425;-34
2023/08/18 06:33:29;;;;;;;5.65;2.28;;;17.40;99.90;;;;;;5066339;28;20474;-34
2023/08/18 06:35:54;;;;;;;5.97;2.30;;;17.40;99.90;;;;;;5063404;28;20060;-34
2023/08/18 06:38:20;;;;;;;3.63;2.17;;;17.40;99.90;;;;;;5065704;28;20051;-34
2023/08/18 06:40:45;;;;;;;4.80;2.28;;;17.40;99.90;;;;;;5066681;28;20048;-34
2023/08/18 06:43:11;;;;;;;5.88;2.42;;;17.50;99.90;;;;;;5066864;28;20465;-34
2023/08/18 06:45:37;;;;;;;4.53;2.53;;;17.50;99.90;;;;;;5057245;28;20040;-34
2023/08/18 06:48:03;;;;;;;5.75;2.78;;;17.50;99.90;;;;;;5054030;28;20056;-34
2023/08/18 06:50:28;;;;;;;5.30;2.60;;;17.60;99.90;;;;;;5065056;28;20048;-34
2023/08/18 06:52:54;;;;;;;4.15;2.38;;;17.60;99.90;;;;;;5065982;28;20519;-34
2023/08/18 06:55:20;;;;;;;6.40;2.95;;;17.70;99.90;;;;;;5052430;28;20056;-34
2023/08/18 06:57:45;;;;;;;5.53;2.90;;;17.70;99.90;;;;;;5055957;28;20095;-34
2023/08/18 07:00:11;;;;;;;6.47;2.70;;;17.70;99.90;;;;;;5064539;28;20048;-34
2023/08/18 07:02:37;;;;;;;5.18;2.92;;;17.80;99.90;;;;;;5068598;28;20497;-34
2023/08/18 07:05:05;;;;;;;6.45;3.13;;;17.80;99.90;;;;;;5057700;28;20048;-34
2023/08/18 07:07:32;;;;;;;4.95;2.28;;;17.90;99.90;;;;;;5060247;28;20086;-34
2023/08/18 07:09:58;;;;;;;8.25;3.00;;;17.90;99.90;;;;;;5065224;28;20101;-34
2023/08/18 07:12:24;;;;;;;5.20;2.63;;;18.00;99.90;;;;;;5070720;28;20493;-34
2023/08/18 07:14:49;;;;;;;3.92;2.65;;;18.10;99.90;;;;;;5064454;28;20426;-34
2023/08/18 07:17:15;;;;;;;5.72;3.00;;;18.20;99.90;;;;;;5052943;28;20060;-34
2023/08/18 07:19:41;;;;;;;7.53;3.33;;;18.30;99.90;;;;;;5066077;28;20048;-34
2023/08/18 07:22:07;;;;;;;6.90;3.30;;;18.30;99.90;;;;;;5053179;28;20049;-34
2023/08/18 07:24:33;;;;;;;5.65;2.88;;;18.30;99.90;;;;;;5055468;28;20040;-34
2023/08/18 07:26:59;;;;;;;5.53;2.88;;;18.40;99.90;;;;;;5040180;28;20713;-34
2023/08/18 07:29:24;;;;;;;6.60;2.90;;;18.40;99.90;;;;;;5056920;28;20124;-34
2023/08/18 07:31:50;;;;;;;6.00;3.15;;;18.40;99.90;;;;;;5055184;28;20053;-34
2023/08/18 07:34:16;;;;;;;5.30;2.67;;;18.50;99.90;;;;;;5058193;28;20101;-34
2023/08/18 07:36:41;;;;;;;7.55;2.63;;;18.50;99.90;;;;;;5047650;28;20060;-34
2023/08/18 07:39:10;;;;;;;7.47;2.95;;;18.60;99.90;;;;;;5055512;28;20140;-34
2023/08/18 07:41:38;;;;;;;6.53;3.40;;;18.60;99.90;;;;;;5048220;28;20914;-34
2023/08/18 07:44:05;;;;;;;5.03;2.90;;;18.70;99.90;;;;;;5055651;28;20178;-34
2023/08/18 07:46:30;;;;;;;4.60;2.85;;;18.70;99.90;;;;;;5060558;28;20061;-34
2023/08/18 07:48:56;;;;;;;4.85;2.47;;;18.80;99.90;;;;;;5058955;28;20137;-35
2023/08/18 07:51:22;;;;;;;6.55;3.50;;;18.80;99.90;;;;;;5060202;28;20045;-34
2023/08/18 07:53:47;;;;;;;5.25;2.80;;;18.80;99.90;;;;;;5049196;28;20032;-34
2023/08/18 07:56:13;;;;;;;5.78;2.60;;;18.90;99.90;;;;;;5058930;28;20471;-34
2023/08/18 07:58:39;;;;;;;5.60;2.90;;;18.90;99.90;;;;;;5063089;28;20559;-34
2023/08/18 08:01:04;;;;;;;5.75;2.95;;;19.00;99.90;;;;;;5057015;28;20131;-34
2023/08/18 08:03:31;;;;;;;5.30;2.78;;;19.00;99.90;;;;;;5063919;28;20486;-34
2023/08/18 08:05:57;;;;;;;8.20;2.90;;;19.10;99.90;;;;;;5065515;28;20044;-34
2023/08/18 08:08:23;;;;;;;5.93;2.80;;;19.10;99.90;;;;;;5065901;28;20518;-34
2023/08/18 08:10:49;;;;;;;6.18;2.75;;;19.10;99.90;;;;;;5055404;28;20055;-34
2023/08/18 08:13:15;;;;;;;6.63;2.92;;;19.20;99.90;;;;;;5063464;28;20532;-34
2023/08/18 08:15:45;;;;;;;6.95;3.63;;;19.30;99.90;;;;;;5064240;28;20056;-34
2023/08/18 08:18:15;;;;;;;5.40;3.28;;;19.30;99.90;;;;;;5058941;28;20056;-34
2023/08/18 08:20:42;;;;;;;5.38;3.17;;;19.40;99.90;;;;;;5066515;28;20056;-34
2023/08/18 08:23:08;;;;;;;4.63;2.90;;;19.40;99.90;;;;;;5060796;28;20057;-35
2023/08/18 08:25:34;;;;;;;5.65;3.30;;;19.50;99.90;;;;;;5060699;28;20490;-34
2023/08/18 08:28:01;;;;;;;5.40;3.30;;;19.50;99.90;;;;;;5069780;28;20098;-34
2023/08/18 08:30:28;;;;;;;5.75;3.20;;;19.50;99.90;;;;;;5066692;28;20131;-34
2023/08/18 08:32:54;;;;;;;5.47;2.65;;;19.60;99.90;;;;;;5060105;28;20048;-34
2023/08/18 08:35:20;;;;;;;5.25;2.97;;;19.70;99.90;;;;;;5064904;28;20116;-34
2023/08/18 08:37:46;;;;;;;7.13;3.30;;;19.80;99.90;;;;;;5066203;28;20052;-34
2023/08/18 08:40:20;;;;;;;6.72;2.58;;;20.00;99.90;;;;;;5054584;28;20041;-34
2023/08/18 08:42:48;;;;;;;6.05;3.03;;;20.00;99.90;;;;;;5045599;28;20576;-34
2023/08/18 08:45:14;;;;;;;5.50;2.97;;;20.10;99.90;;;;;;5048155;28;20061;-34
2023/08/18 08:47:43;;;;;;;5.53;3.28;;;20.20;99.90;;;;;;5052229;28;20178;-34
2023/08/18 08:50:11;;;;;;;6.45;3.20;;;20.10;99.90;;;;;;5056195;28;20557;-34
2023/08/18 08:52:39;;;;;;;7.38;3.60;;;20.10;99.90;;;;;;5061478;28;20055;-34
2023/08/18 08:55:07;;;;;;;6.75;3.03;;;20.10;99.90;;;;;;5057077;28;20048;-34
2023/08/18 08:57:32;;;;;;;6.88;3.00;;;20.10;99.90;;;;;;5057200;28;20175;-34
2023/08/18 08:59:59;;;;;;;8.20;3.30;;;20.10;99.90;;;;;;5056065;28;20064;-34
2023/08/18 09:02:25;;;;;;;7.40;3.28;;;20.20;99.90;;;;;;5056879;28;20052;-34
2023/08/18 09:04:51;;;;;;;6.85;3.45;;;20.20;99.90;;;;;;5056010;28;20080;-34
2023/08/18 09:07:17;;;;;;;7.13;3.08;;;20.20;99.90;;;;;;5051534;28;20144;-35
2023/08/18 09:09:43;;;;;;;4.78;3.47;;;20.20;99.90;;;;;;5067013;28;20067;-34
2023/08/18 09:12:10;;;;;;;7.03;3.50;;;20.30;99.90;;;;;;5063878;28;20041;-34
2023/08/18 09:14:38;;;;;;;4.72;2.58;;;20.30;99.90;;;;;;5062100;28;20497;-35
2023/08/18 09:17:05;;;;;;;5.72;3.40;;;20.30;99.90;;;;;;5065118;28;20045;-34
2023/08/18 09:19:31;;;;;;;7.55;3.03;;;20.40;99.90;;;;;;5056686;28;20076;-34
2023/08/18 09:21:58;;;;;;;7.80;3.97;;;20.60;99.90;;;;;;5051973;28;20056;-35
2023/08/18 09:24:24;;;;;;;5.72;2.95;;;20.70;99.90;;;;;;5064850;28;20048;-34
2023/08/18 09:26:50;;;;;;;4.63;3.20;;;20.80;99.90;;;;;;5063083;28;20056;-34
2023/08/18 09:29:16;;;;;;;4.32;2.42;;;21.00;99.90;;;;;;5062927;28;20137;-34
2023/08/18 09:31:45;;;;;;;5.40;2.75;;;21.20;99.90;;;;;;5052075;28;20052;-34
2023/08/18 09:34:19;;;;;;;8.10;3.38;;;21.30;99.90;;;;;;5061837;28;20044;-35
2023/08/18 09:36:52;;;;;;;6.47;3.03;;;21.40;99.90;;;;;;5056115;28;20049;-34
2023/08/18 09:39:18;;;;;;;8.25;3.30;;;21.50;99.90;;;;;;5061217;28;20080;-34
2023/08/18 09:41:52;;;;;;;6.50;3.38;;;21.60;99.90;;;;;;5057930;28;20060;-34
2023/08/18 09:44:19;;;;;;;7.40;3.20;;;21.70;99.90;;;;;;5057922;28;20784;-34
2023/08/18 09:46:50;;;;;;;7.82;3.70;;;21.70;99.90;;;;;;5056001;28;20398;-34
2023/08/18 09:49:19;;;;;;;6.50;3.25;;;21.80;99.90;;;;;;5041186;28;20243;-34
2023/08/18 09:51:48;;;;;;;6.10;3.05;;;21.90;99.90;;;;;;5060403;28;20055;-34
2023/08/18 09:54:19;;;;;;;6.03;2.90;;;21.90;99.90;;;;;;5056965;28;20493;-34
2023/08/18 09:56:47;;;;;;;7.75;3.75;;;22.00;99.90;;;;;;5059505;28;20044;-34
2023/08/18 09:59:25;;;;;;;6.28;3.58;;;22.00;99.90;;;;;;5059727;28;20149;-34
2023/08/18 10:01:52;;;;;;;6.05;3.30;;;21.90;99.90;;;;;;5058424;28;20118;-34
2023/08/18 10:04:24;;;;;;;9.38;3.78;;;22.00;99.90;;;;;;5056855;28;20053;-34
2023/08/18 10:06:52;;;;;;;7.10;3.70;;;22.00;99.90;;;;;;5045312;28;21227;-34
2023/08/18 10:09:22;;;;;;;7.45;4.03;;;21.90;99.90;;;;;;5059045;28;20147;-34
2023/08/18 10:11:50;;;;;;;5.97;3.22;;;21.80;99.90;;;;;;5049734;28;20094;-34
2023/08/18 10:14:17;;;;;;;7.20;4.20;;;21.80;99.90;;;;;;5061440;28;20485;-34
2023/08/18 10:16:44;;;;;;;7.45;4.07;;;21.90;99.90;;;;;;5058239;28;20055;-34
2023/08/18 10:19:10;;;;;;;7.20;3.60;;;21.90;99.90;;;;;;5061003;28;20048;-34
2023/08/18 10:21:36;;;;;;;9.27;4.75;;;21.90;99.90;;;;;;5068374;28;20090;-34
2023/08/18 10:24:03;;;;;;;7.10;4.55;;;22.00;99.90;;;;;;5059800;28;20095;-34
2023/08/18 10:26:32;;;;;;;11.20;5.50;;;22.00;99.90;;;;;;5058237;28;20060;-34
2023/08/18 10:29:16;;;;;;;9.52;5.47;;;22.10;99.90;;;;;;5060376;28;20103;-34
2023/08/18 10:31:48;;;;;;;8.43;5.10;;;22.10;99.90;;;;;;5064523;28;20493;-34
2023/08/18 10:34:21;;;;;;;10.50;5.43;;;22.10;99.90;;;;;;5063984;28;20036;-34
2023/08/18 10:36:46;;;;;;;9.13;5.82;;;22.20;99.90;;;;;;5062926;28;20071;-35
2023/08/18 10:39:26;;;;;;;10.18;4.90;;;22.40;99.90;;;;;;5046340;28;20148;-34
2023/08/18 10:42:07;;;;;;;7.88;5.40;;;22.50;99.90;;;;;;5061036;28;20461;-34
2023/08/18 10:44:34;;;;;;;9.07;5.57;;;22.80;99.90;;;;;;5055224;28;20133;-34
2023/08/18 10:47:23;;;;;;;9.90;6.22;;;23.00;99.90;;;;;;5065881;28;20064;-35
2023/08/18 10:49:49;;;;;;;8.40;5.38;;;23.10;99.90;;;;;;5062807;28;20060;-34
2023/08/18 10:52:15;;;;;;;10.45;6.30;;;23.20;99.90;;;;;;5066072;28;20083;-34
2023/08/18 10:54:40;;;;;;;9.65;6.57;;;23.30;99.90;;;;;;5069149;28;20556;-34
2023/08/18 10:57:06;;;;;;;10.10;6.13;;;23.30;99.90;;;;;;5060637;28;20075;-35
2023/08/18 10:59:32;;;;;;;9.23;6.22;;;23.20;99.90;;;;;;5075861;28;20053;-34
2023/08/18 11:01:57;;;;;;;10.82;6.22;;;23.20;99.90;;;;;;5045202;28;20141;-34
2023/08/18 11:04:23;;;;;;;9.13;5.38;;;23.30;99.90;;;;;;5059903;28;20454;-34
2023/08/18 11:06:50;;;;;;;11.00;5.97;;;23.30;99.90;;;;;;5037345;28;20500;-35
2023/08/18 11:09:17;;;;;;;8.90;5.40;;;23.40;99.90;;;;;;5058985;28;20139;-35
2023/08/18 11:11:42;;;;;;;7.72;5.78;;;23.60;99.90;;;;;;5055387;28;20205;-35
2023/08/18 11:14:08;;;;;;;11.43;7.65;;;23.70;99.90;;;;;;5056115;28;20505;-35
2023/08/18 11:16:36;;;;;;;10.63;7.68;;;23.90;99.90;;;;;;5038999;28;20040;-35
2023/08/18 11:19:04;;;;;;;10.25;6.75;;;24.00;99.90;;;;;;5051805;28;20044;-35
2023/08/18 11:21:31;;;;;;;9.68;6.22;;;24.00;99.90;;;;;;5054060;28;20045;-35
2023/08/18 11:23:56;;;;;;;12.75;7.80;;;24.00;99.90;;;;;;5061300;28;20188;-35
2023/08/18 11:26:22;;;;;;;10.80;6.97;;;24.10;99.90;;;;;;5055951;28;20822;-35
2023/08/18 11:28:48;;;;;;;10.20;7.07;;;24.10;99.90;;;;;;5062189;28;20044;-35
2023/08/18 11:31:13;;;;;;;10.27;6.28;;;24.10;99.90;;;;;;5060683;28;20147;-35
2023/08/18 11:33:39;;;;;;;11.40;6.57;;;24.20;99.90;;;;;;5056338;28;20127;-35
2023/08/18 11:36:09;;;;;;;10.60;7.18;;;24.30;99.90;;;;;;5050997;28;20402;-34
2023/08/18 11:38:34;;;;;;;12.55;7.80;;;24.50;99.90;;;;;;5058262;28;20417;-35
2023/08/18 11:41:00;;;;;;;12.40;7.72;;;24.50;99.90;;;;;;5048087;28;20052;-35
2023/08/18 11:43:27;;;;;;;10.85;6.07;;;24.40;99.90;;;;;;5054387;28;20053;-35
2023/08/18 11:45:53;;;;;;;10.38;7.15;;;24.40;99.90;;;;;;5048733;28;20502;-34
2023/08/18 11:48:21;;;;;;;10.88;7.38;;;24.30;99.90;;;;;;5062395;28;20066;-35
2023/08/18 11:50:46;;;;;;;10.68;7.05;;;24.30;99.90;;;;;;5059277;28;20056;-35
2023/08/18 11:53:21;;;;;;;10.68;6.57;;;24.30;99.90;;;;;;5056862;28;20049;-35
2023/08/18 11:55:47;;;;;;;10.13;6.95;;;24.30;99.90;;;;;;5062710;28;20405;-35
2023/08/18 11:58:16;;;;;;;12.32;7.82;;;24.30;99.90;;;;;;5063309;28;20060;-35
2023/08/18 12:00:44;;;;;;;13.77;8.02;;;24.40;99.90;;;;;;5062323;28;20044;-35
2023/08/18 12:03:27;;;;;;;15.32;7.50;;;24.50;99.90;;;;;;5066182;28;20051;-34
2023/08/18 12:05:54;;;;;;;12.27;9.02;;;24.60;99.90;;;;;;5063515;28;20053;-35
2023/08/18 12:08:20;;;;;;;10.45;7.00;;;24.60;99.90;;;;;;5061307;28;20470;-35
2023/08/18 12:10:48;;;;;;;11.90;8.15;;;24.80;99.90;;;;;;5053888;28;20123;-34
2023/08/18 12:13:14;;;;;;;10.90;7.05;;;24.90;99.90;;;;;;5061166;28;20564;-35
2023/08/18 12:15:39;;;;;;;11.82;7.57;;;25.00;99.90;;;;;;5064014;28;20052;-34
2023/08/18 12:18:05;;;;;;;11.95;8.38;;;25.20;99.90;;;;;;5065766;28;20102;-35
2023/08/18 12:20:32;;;;;;;12.13;7.30;;;25.40;99.90;;;;;;5059828;28;20044;-35
2023/08/18 12:22:58;;;;;;;12.65;8.15;;;25.50;99.90;;;;;;5065130;28;20060;-34
2023/08/18 12:25:24;;;;;;;11.98;7.85;;;25.70;99.90;;;;;;5044173;28;20062;-35
2023/08/18 12:27:50;;;;;;;13.90;8.48;;;25.90;99.90;;;;;;5041930;28;22238;-35
2023/08/18 12:30:18;;;;;;;10.77;8.10;;;26.10;99.90;;;;;;5061199;28;20055;-35
2023/08/18 12:32:45;;;;;;;11.57;8.15;;;26.30;99.90;;;;;;5060125;28;20048;-35
2023/08/18 12:35:11;;;;;;;12.75;8.20;;;26.50;99.90;;;;;;5062508;28;20076;-35
2023/08/18 12:37:37;;;;;;;10.40;7.13;;;26.60;99.90;;;;;;5051053;28;20098;-35
2023/08/18 12:40:06;;;;;;;10.88;7.90;;;26.90;99.90;;;;;;5058802;28;20107;-35
2023/08/18 12:42:32;;;;;;;16.60;8.60;;;27.20;99.90;;;;;;5055631;28;20052;-35
2023/08/18 12:44:58;;;;;;;10.77;7.40;;;27.40;99.90;;;;;;5057600;28;20060;-35